Time;durP1;ratioP1;P1;durP2;ratioP2;P2;SDS_P1;SDS_P2;PMS_P1;PMS_P2;Temp;Humidity;BMP_temperature;BMP_pressure;BME280_temperature;BME280_humidity;BME280_pressure;Samples;Min_cycle;Max_cycle;Signal;HPM_P1;HPM_P2
2021/08/22 00:00:56;;;;;;;6.45;5.72;;;18.50;99.90;;;20.15;98.87;100385.75;6216548;23;20044;-85
2021/08/22 00:03:23;;;;;;;8.82;5.88;;;18.60;99.90;;;20.17;98.79;100381.25;6216836;23;20008;-88
2021/08/22 00:05:49;;;;;;;7.65;5.78;;;18.50;99.90;;;20.14;99.06;100375.63;6220513;23;20011;-88
2021/08/22 00:08:14;;;;;;;6.75;5.50;;;18.50;99.90;;;20.07;100.00;100375.75;6218955;23;20004;-90
2021/08/22 00:10:40;;;;;;;8.32;6.30;;;18.50;99.90;;;20.01;100.00;100381.09;6218569;23;20431;-88
2021/08/22 00:13:06;;;;;;;8.38;7.22;;;18.50;99.90;;;19.96;100.00;100382.41;6217758;23;20008;-86
2021/08/22 00:15:32;;;;;;;10.23;6.80;;;18.40;99.90;;;19.99;100.00;100383.56;6218898;23;20004;-88
2021/08/22 00:17:58;;;;;;;8.48;6.40;;;18.40;99.90;;;19.92;100.00;100380.84;6217580;23;20012;-91
2021/08/22 00:20:24;;;;;;;9.20;6.30;;;18.40;99.90;;;19.92;100.00;100375.16;6217578;23;20461;-89
2021/08/22 00:22:50;;;;;;;8.27;6.18;;;18.40;99.90;;;19.99;100.00;100355.22;6218637;23;20004;-89
2021/08/22 00:25:16;;;;;;;8.43;6.78;;;18.40;99.90;;;20.05;100.00;100349.84;6219936;23;20008;-89
2021/08/22 00:27:42;;;;;;;8.38;6.80;;;18.40;99.90;;;20.04;100.00;100342.56;6217880;23;20038;-86
2021/08/22 00:30:09;;;;;;;10.90;6.82;;;18.40;99.90;;;20.01;100.00;100344.25;6219307;23;20011;-86
2021/08/22 00:32:35;;;;;;;7.53;5.90;;;18.40;99.90;;;20.01;100.00;100344.25;6192133;23;20059;-88
2021/08/22 00:35:02;;;;;;;10.10;6.82;;;18.30;99.90;;;19.98;100.00;100337.41;6217248;23;20009;-87
2021/08/22 00:37:29;;;;;;;8.13;6.18;;;18.40;99.90;;;20.00;100.00;100339.81;6218209;23;20461;-90
2021/08/22 00:39:57;;;;;;;7.28;5.97;;;18.30;99.90;;;19.97;100.00;100332.94;6192361;23;20431;-87
2021/08/22 00:42:34;;;;;;;9.77;6.60;;;18.40;99.90;;;19.97;100.00;100338.63;6216492;23;20103;-86
2021/08/22 00:45:04;;;;;;;9.82;7.32;;;18.30;99.90;;;19.90;100.00;100335.94;6216913;23;20016;-88
2021/08/22 00:47:30;;;;;;;11.07;8.05;;;18.30;99.90;;;19.87;100.00;100335.97;6216609;23;20335;-90
2021/08/22 00:49:59;;;;;;;9.93;8.20;;;18.20;99.90;;;19.84;100.00;100329.13;6217497;23;20100;-89
2021/08/22 00:52:32;;;;;;;8.82;7.60;;;18.20;99.90;;;19.82;100.00;100333.63;6218087;23;20008;-89
2021/08/22 00:55:04;;;;;;;10.15;7.20;;;18.20;99.90;;;19.78;100.00;100327.19;6193627;23;20032;-89
2021/08/22 00:57:30;;;;;;;9.45;7.75;;;18.20;99.90;;;19.73;100.00;100336.19;6220008;23;20016;-88
2021/08/22 01:00:05;;;;;;;8.60;7.40;;;18.20;99.90;;;19.74;100.00;100326.47;6218102;23;20020;-90
2021/08/22 01:02:42;;;;;;;9.52;7.88;;;18.20;99.90;;;19.73;100.00;100330.53;6192706;23;20095;-88
2021/08/22 01:05:45;;;;;;;10.07;7.63;;;18.10;99.90;;;19.67;100.00;100333.03;6219687;23;20024;-86
2021/08/22 01:08:36;;;;;;;8.40;7.55;;;18.10;99.90;;;19.63;100.00;100337.16;6205326;23;20009;-89
2021/08/22 01:11:35;;;;;;;10.10;7.80;;;18.10;99.90;;;19.70;100.00;100329.34;6236305;23;19996;-87
2021/08/22 01:14:13;;;;;;;9.13;7.55;;;18.10;99.90;;;19.73;100.00;100328.50;6211385;23;20012;-85
2021/08/22 01:16:50;;;;;;;12.07;8.20;;;18.10;99.90;;;19.71;100.00;100336.63;6222554;23;20004;-88
2021/08/22 01:19:33;;;;;;;9.93;8.38;;;18.10;99.90;;;19.60;100.00;100338.00;6203958;23;19993;-89
2021/08/22 01:22:05;;;;;;;9.13;6.90;;;18.10;99.90;;;19.70;100.00;100346.34;6199762;23;19993;-83
2021/08/22 01:24:32;;;;;;;8.55;7.10;;;18.10;99.90;;;19.73;100.00;100339.81;6241676;23;20000;-83
2021/08/22 01:27:01;;;;;;;12.13;8.48;;;18.10;99.90;;;19.74;100.00;100344.28;6200206;23;20039;-87
2021/08/22 01:29:44;;;;;;;10.02;7.68;;;18.20;99.90;;;19.72;100.00;100343.88;6192276;23;20015;-91
2021/08/22 01:32:13;;;;;;;11.43;8.30;;;18.10;99.90;;;19.72;100.00;100352.38;6217815;23;20005;-89
2021/08/22 01:34:41;;;;;;;10.48;8.75;;;18.10;99.90;;;19.67;100.00;100358.53;6217987;23;20031;-90
2021/08/22 01:37:08;;;;;;;11.85;9.35;;;18.20;99.90;;;19.64;100.00;100353.72;6218734;23;20013;-87
2021/08/22 01:39:36;;;;;;;11.38;8.68;;;18.10;99.90;;;19.64;100.00;100362.22;6220965;23;20015;-90
2021/08/22 01:42:09;;;;;;;11.73;8.45;;;18.10;99.90;;;19.77;100.00;100368.91;6222193;23;20008;-89
2021/08/22 01:44:38;;;;;;;13.10;8.95;;;18.10;99.90;;;19.77;100.00;100368.13;6220019;23;20036;-88
2021/08/22 01:47:09;;;;;;;8.70;7.50;;;18.10;99.90;;;19.76;100.00;100369.34;6220482;23;20439;-92
2021/08/22 01:49:35;;;;;;;12.90;8.27;;;18.10;99.90;;;19.71;100.00;100364.16;6219932;23;20009;-85
2021/08/22 01:52:03;;;;;;;12.25;8.82;;;18.10;99.90;;;19.66;100.00;100373.13;6220020;23;20008;-89
2021/08/22 01:54:29;;;;;;;11.55;8.02;;;18.10;99.90;;;19.66;100.00;100373.94;6217217;23;20057;-87
2021/08/22 01:56:55;;;;;;;10.85;9.38;;;18.10;99.90;;;19.66;100.00;100378.78;6217501;23;20005;-88
2021/08/22 01:59:21;;;;;;;12.65;8.63;;;18.10;99.90;;;19.68;100.00;100379.97;6191370;23;20004;-89
2021/08/22 02:01:47;;;;;;;13.90;8.30;;;18.10;99.90;;;19.67;100.00;100377.56;6192348;23;20505;-89
2021/08/22 02:04:31;;;;;;;8.93;7.13;;;18.10;99.90;;;19.53;100.00;100380.59;6217774;23;20009;-87
2021/08/22 02:07:19;;;;;;;7.10;5.20;;;18.00;99.90;;;19.31;100.00;100380.84;6217961;23;20085;-88
2021/08/22 02:10:03;;;;;;;7.45;4.30;;;17.90;99.90;;;19.42;100.00;100375.88;6217884;23;20008;-89
2021/08/22 02:12:30;;;;;;;6.40;4.25;;;17.90;99.90;;;19.26;100.00;100378.50;6192295;23;20008;-85
2021/08/22 02:15:27;;;;;;;5.55;3.60;;;17.80;99.90;;;19.37;100.00;100373.50;6218876;23;20008;-88
2021/08/22 02:18:07;;;;;;;5.10;3.60;;;17.80;99.90;;;19.29;100.00;100371.19;6217598;23;20020;-90
2021/08/22 02:20:36;;;;;;;6.22;4.10;;;17.70;99.90;;;19.19;100.00;100367.25;6217509;23;20000;-89
2021/08/22 02:23:03;;;;;;;6.03;3.58;;;17.70;99.90;;;19.23;100.00;100370.03;6216461;23;20024;-88
2021/08/22 02:25:30;;;;;;;4.78;3.70;;;17.60;99.90;;;19.17;100.00;100366.84;6216775;23;20379;-90
2021/08/22 02:28:00;;;;;;;6.78;4.25;;;17.60;99.90;;;19.11;100.00;100364.91;6192617;23;20385;-88
2021/08/22 02:30:38;;;;;;;6.13;4.90;;;17.60;99.90;;;19.01;100.00;100375.16;6217660;23;20009;-88
2021/08/22 02:33:06;;;;;;;6.22;4.88;;;17.50;99.90;;;18.98;100.00;100375.19;6218900;23;20012;-87
2021/08/22 02:35:33;;;;;;;7.68;4.60;;;17.50;99.90;;;18.82;100.00;100368.09;6192860;23;20071;-88
2021/08/22 02:37:59;;;;;;;6.65;4.43;;;17.50;99.90;;;18.93;100.00;100365.13;6217618;23;20354;-86
2021/08/22 02:40:26;;;;;;;6.30;3.70;;;17.50;99.90;;;18.91;100.00;100364.78;6219708;23;20001;-89
2021/08/22 02:42:52;;;;;;;5.38;3.47;;;17.40;99.90;;;18.91;100.00;100359.13;6216728;23;20008;-89
2021/08/22 02:45:18;;;;;;;4.38;3.53;;;17.50;99.90;;;18.92;100.00;100360.69;6216852;23;20033;-89
2021/08/22 02:47:44;;;;;;;4.60;2.97;;;17.40;99.90;;;18.90;100.00;100363.16;6217252;23;20334;-89
2021/08/22 02:50:11;;;;;;;4.05;2.95;;;17.40;99.90;;;18.87;100.00;100355.50;6216696;23;20008;-89
2021/08/22 02:52:37;;;;;;;5.28;3.58;;;17.40;99.90;;;18.83;100.00;100361.22;6218635;23;20019;-89
2021/08/22 02:55:03;;;;;;;7.90;3.10;;;17.40;99.90;;;18.85;100.00;100364.41;6191577;23;20079;-87
2021/08/22 02:57:29;;;;;;;4.95;3.45;;;17.30;99.90;;;18.71;100.00;100367.41;6216370;23;20521;-90
2021/08/22 02:59:55;;;;;;;4.80;3.13;;;17.30;99.90;;;18.76;100.00;100360.47;6217111;23;20040;-89
2021/08/22 03:02:20;;;;;;;3.28;2.90;;;17.30;99.90;;;18.66;100.00;100362.19;6217253;23;20047;-86
2021/08/22 03:04:46;;;;;;;4.68;3.20;;;17.20;99.90;;;18.71;100.00;100366.59;6219483;23;20016;-88
2021/08/22 03:07:12;;;;;;;5.55;3.03;;;17.20;99.90;;;18.70;100.00;100362.16;6216956;23;20013;-89
2021/08/22 03:09:38;;;;;;;6.18;3.33;;;17.20;99.90;;;18.61;100.00;100350.53;6218146;23;20012;-89
2021/08/22 03:12:05;;;;;;;4.78;2.63;;;17.20;99.90;;;18.68;100.00;100347.66;6219025;23;20004;-87
2021/08/22 03:14:31;;;;;;;4.30;3.33;;;17.20;99.90;;;18.65;100.00;100354.94;6220196;23;20004;-87
2021/08/22 03:16:57;;;;;;;5.80;3.35;;;17.10;99.90;;;18.57;100.00;100356.22;6218633;23;20001;-89
2021/08/22 03:19:22;;;;;;;4.93;3.35;;;17.10;99.90;;;18.54;100.00;100359.09;6218476;23;20001;-86
2021/08/22 03:21:48;;;;;;;4.82;3.63;;;17.10;99.90;;;18.57;100.00;100356.22;6218392;23;20005;-89
2021/08/22 03:24:14;;;;;;;4.80;3.78;;;17.10;99.90;;;18.50;100.00;100353.47;6218551;23;20012;-88
2021/08/22 03:26:40;;;;;;;5.15;3.60;;;17.10;99.90;;;18.50;100.00;100355.50;6219234;23;20005;-91
2021/08/22 03:29:07;;;;;;;6.15;3.60;;;17.10;99.90;;;18.57;100.00;100346.94;6218483;23;20019;-89
2021/08/22 03:31:34;;;;;;;5.97;3.90;;;17.10;99.90;;;18.57;100.00;100353.41;6218720;23;20012;-89
2021/08/22 03:33:59;;;;;;;4.75;3.45;;;17.10;99.90;;;18.55;100.00;100357.88;6220103;23;20087;-87
2021/08/22 03:36:25;;;;;;;7.88;3.90;;;17.10;99.90;;;18.59;100.00;100361.47;6219227;23;20009;-86
2021/08/22 03:38:52;;;;;;;7.10;3.83;;;17.10;99.90;;;18.61;100.00;100364.69;6220360;23;20451;-89
2021/08/22 03:41:18;;;;;;;5.70;3.70;;;17.10;99.90;;;18.66;100.00;100372.69;6220994;23;20538;-88
2021/08/22 03:43:44;;;;;;;6.32;4.10;;;17.10;99.90;;;18.66;100.00;100365.03;6221693;23;20004;-86
2021/08/22 03:46:10;;;;;;;7.32;4.90;;;17.20;99.90;;;18.76;100.00;100371.78;6238263;23;20008;-84
2021/08/22 03:48:36;;;;;;;6.88;4.90;;;17.20;99.90;;;18.83;100.00;100368.88;6231398;23;20023;-89
2021/08/22 03:51:01;;;;;;;8.35;5.00;;;17.20;99.90;;;18.84;100.00;100368.47;6218515;23;20008;-87
2021/08/22 03:53:27;;;;;;;10.95;5.13;;;17.30;99.90;;;18.86;100.00;100359.56;6218219;23;20359;-89
2021/08/22 03:55:53;;;;;;;7.63;6.22;;;17.40;99.90;;;18.82;100.00;100362.44;6218788;23;20119;-86
2021/08/22 03:58:19;;;;;;;9.77;6.70;;;17.30;99.90;;;18.93;100.00;100353.81;6217284;23;20175;-88
2021/08/22 04:00:45;;;;;;;9.63;6.70;;;17.40;99.90;;;19.01;100.00;100361.00;6217011;23;20020;-87
2021/08/22 04:03:10;;;;;;;10.20;6.15;;;17.40;99.90;;;19.05;100.00;100355.28;6218409;23;20434;-84
2021/08/22 04:05:37;;;;;;;8.60;6.90;;;17.50;99.90;;;19.09;100.00;100362.53;6217013;23;20005;-85
2021/08/22 04:08:03;;;;;;;9.50;6.88;;;17.40;99.90;;;19.05;100.00;100350.44;6217473;23;20028;-87
2021/08/22 04:10:30;;;;;;;12.65;6.95;;;17.50;99.90;;;19.12;100.00;100364.50;6217171;23;20083;-85
2021/08/22 04:12:57;;;;;;;9.65;7.03;;;17.60;99.90;;;19.10;100.00;100360.50;6217055;23;20008;-87
2021/08/22 04:15:24;;;;;;;10.98;8.73;;;17.50;99.90;;;19.07;100.00;100358.53;6217539;23;20454;-88
2021/08/22 04:17:50;;;;;;;13.38;8.95;;;17.50;99.90;;;19.09;100.00;100353.22;6216177;23;20052;-89
2021/08/22 04:20:16;;;;;;;11.18;8.88;;;17.60;99.90;;;19.12;100.00;100353.19;6216744;23;20084;-88
2021/08/22 04:22:43;;;;;;;12.77;8.98;;;17.60;99.90;;;19.14;100.00;100353.56;6217582;23;20005;-88
2021/08/22 04:25:12;;;;;;;14.07;10.52;;;17.60;99.90;;;19.13;100.00;100351.97;6216053;23;20012;-87
2021/08/22 04:27:41;;;;;;;14.73;11.32;;;17.60;99.90;;;19.04;100.00;100350.88;6216630;23;20504;-89
2021/08/22 04:30:12;;;;;;;14.80;10.20;;;17.60;99.90;;;19.08;100.00;100354.44;6191781;23;20013;-88
2021/08/22 04:32:39;;;;;;;14.45;10.95;;;17.60;99.90;;;19.18;100.00;100359.97;6216875;23;20095;-86
2021/08/22 04:35:07;;;;;;;12.52;10.60;;;17.60;99.90;;;19.21;100.00;100358.31;6216569;23;20046;-88
2021/08/22 04:37:33;;;;;;;17.33;13.32;;;17.60;99.90;;;19.09;100.00;100353.22;6217798;23;20036;-90
2021/08/22 04:39:59;;;;;;;14.40;11.43;;;17.60;99.90;;;19.14;100.00;100358.41;6216413;23;20276;-89
2021/08/22 04:42:26;;;;;;;14.05;11.68;;;17.60;99.90;;;19.15;100.00;100358.00;6217914;23;20016;-87
2021/08/22 04:44:51;;;;;;;15.35;11.23;;;17.60;99.90;;;19.19;100.00;100366.44;6218105;23;20007;-85
2021/08/22 04:47:18;;;;;;;14.45;11.20;;;17.60;99.90;;;19.21;100.00;100366.81;6218659;23;20330;-87
2021/08/22 04:49:44;;;;;;;16.08;12.90;;;17.60;99.90;;;19.16;100.00;100368.09;6216509;23;20009;-87
2021/08/22 04:52:10;;;;;;;17.55;13.05;;;17.60;99.90;;;19.18;100.00;100371.31;6215818;23;20016;-88
2021/08/22 04:54:36;;;;;;;14.93;12.30;;;17.60;99.90;;;19.15;100.00;100372.16;6216786;23;20323;-87
2021/08/22 04:57:02;;;;;;;18.35;13.50;;;17.60;99.90;;;19.24;100.00;100375.28;6215995;23;20012;-89
2021/08/22 04:59:28;;;;;;;15.65;13.20;;;17.60;99.90;;;19.18;100.00;100374.13;6217285;23;20039;-88
2021/08/22 05:01:54;;;;;;;19.75;13.63;;;17.60;99.90;;;19.16;100.00;100384.28;6218027;23;20493;-87
2021/08/22 05:04:20;;;;;;;17.67;13.07;;;17.60;99.90;;;19.10;100.00;100381.13;6217324;23;20011;-88
2021/08/22 05:06:46;;;;;;;17.27;12.15;;;17.60;99.90;;;19.10;100.00;100389.63;6217370;23;20008;-91
2021/08/22 05:09:11;;;;;;;16.35;12.60;;;17.60;99.90;;;19.07;100.00;100381.94;6192071;23;20008;-90
2021/08/22 05:11:37;;;;;;;13.23;11.02;;;17.60;99.90;;;19.14;100.00;100381.88;6192616;23;20036;-86
2021/08/22 05:14:03;;;;;;;14.35;11.38;;;17.60;99.90;;;19.18;100.00;100396.78;6218487;23;20032;-87
2021/08/22 05:16:29;;;;;;;13.88;11.65;;;17.70;99.90;;;19.16;100.00;100392.78;6192486;23;20015;-88
2021/08/22 05:18:55;;;;;;;16.42;11.88;;;17.60;99.90;;;19.14;100.00;100390.34;6219142;23;20461;-90
2021/08/22 05:21:21;;;;;;;20.55;13.48;;;17.60;99.90;;;19.06;100.00;100402.19;6218126;23;20407;-90
2021/08/22 05:23:47;;;;;;;14.60;10.63;;;17.60;99.90;;;19.17;100.00;100400.06;6217634;23;20004;-89
2021/08/22 05:26:13;;;;;;;15.27;12.00;;;17.60;99.90;;;19.21;100.00;100400.78;6219677;23;20004;-90
2021/08/22 05:28:39;;;;;;;15.57;10.75;;;17.60;99.90;;;19.20;100.00;100407.69;6217716;23;20004;-89
2021/08/22 05:31:05;;;;;;;16.52;12.88;;;17.60;99.90;;;19.11;100.00;100396.06;6217887;23;20039;-88
2021/08/22 05:33:33;;;;;;;18.63;14.30;;;17.50;99.90;;;19.15;100.00;100405.31;6219995;23;20028;-90
2021/08/22 05:36:22;;;;;;;19.02;13.30;;;17.50;99.90;;;19.21;100.00;100397.97;6193925;23;20404;-87
2021/08/22 05:38:51;;;;;;;16.88;13.38;;;17.60;99.90;;;19.24;100.00;100412.06;6219017;23;20036;-88
2021/08/22 05:41:18;;;;;;;16.70;13.57;;;17.60;99.90;;;19.22;100.00;100408.88;6218863;23;20008;-89
2021/08/22 05:43:44;;;;;;;17.13;13.68;;;17.60;99.90;;;19.26;100.00;100411.66;6218078;23;20000;-89
2021/08/22 05:46:10;;;;;;;15.00;11.98;;;17.70;99.90;;;19.37;100.00;100410.31;6218369;23;20004;-85
2021/08/22 05:48:37;;;;;;;20.05;13.95;;;17.70;99.90;;;19.19;100.00;100412.56;6219033;23;20051;-89
2021/08/22 05:51:05;;;;;;;18.67;13.43;;;17.70;99.90;;;19.34;100.00;100410.34;6195869;23;20088;-87
2021/08/22 05:53:31;;;;;;;17.05;13.00;;;17.80;99.90;;;19.42;100.00;100418.34;6220222;23;20059;-89
2021/08/22 05:55:58;;;;;;;15.82;12.82;;;17.80;99.90;;;19.46;100.00;100416.28;6222132;23;20001;-89
2021/08/22 05:58:25;;;;;;;19.45;13.25;;;17.80;99.90;;;19.57;100.00;100421.81;6223330;23;20012;-84
2021/08/22 06:00:51;;;;;;;15.98;12.63;;;17.90;99.90;;;19.58;100.00;100419.78;6225008;23;20055;-89
2021/08/22 06:03:17;;;;;;;16.98;13.13;;;17.90;99.90;;;19.59;100.00;100424.22;6222776;23;20366;-89
2021/08/22 06:05:42;;;;;;;17.85;13.73;;;18.00;99.90;;;19.51;100.00;100423.50;6222355;23;20004;-92
2021/08/22 06:08:08;;;;;;;17.85;12.90;;;17.90;99.90;;;19.58;100.00;100428.28;6238007;23;20004;-83
2021/08/22 06:10:34;;;;;;;15.00;12.45;;;17.90;99.90;;;19.61;100.00;100433.91;6237072;23;20026;-87
2021/08/22 06:13:00;;;;;;;18.90;12.10;;;18.00;99.90;;;19.66;100.00;100441.13;6223027;23;20454;-85
2021/08/22 06:15:26;;;;;;;16.75;11.82;;;18.00;99.90;;;19.64;100.00;100441.56;6221849;23;20071;-88
2021/08/22 06:17:54;;;;;;;16.08;12.85;;;18.00;99.90;;;19.61;100.00;100441.59;6223153;23;20005;-88
2021/08/22 06:20:20;;;;;;;17.17;12.10;;;18.00;99.90;;;19.67;100.00;100442.72;6222020;23;20386;-85
2021/08/22 06:22:47;;;;;;;17.10;12.82;;;18.00;99.90;;;19.75;100.00;100441.41;6221349;23;20035;-86
2021/08/22 06:25:14;;;;;;;17.73;12.35;;;18.00;99.90;;;19.76;100.00;100440.97;6196652;23;20107;-89
2021/08/22 06:27:40;;;;;;;12.43;10.57;;;18.10;99.90;;;19.88;99.62;100442.44;6223695;23;20015;-92
2021/08/22 06:30:07;;;;;;;17.95;13.73;;;18.20;99.90;;;19.95;99.02;100445.16;6222317;23;20004;-85
2021/08/22 06:32:34;;;;;;;18.00;12.75;;;18.20;99.90;;;19.96;99.09;100449.63;6221445;23;20009;-87
2021/08/22 06:35:00;;;;;;;17.13;12.90;;;18.30;99.90;;;19.89;98.38;100441.22;6195116;23;20008;-86
2021/08/22 06:37:26;;;;;;;15.40;12.55;;;18.20;99.90;;;19.84;99.11;100444.53;6193386;23;20008;-88
2021/08/22 06:39:53;;;;;;;18.75;14.05;;;18.20;99.90;;;19.82;98.44;100452.63;6220832;23;20008;-87
2021/08/22 06:42:19;;;;;;;18.40;13.10;;;18.30;99.90;;;19.95;97.78;100451.66;6219086;23;20388;-87
2021/08/22 06:44:44;;;;;;;19.60;14.20;;;18.30;99.90;;;20.12;96.83;100446.94;6196761;23;20008;-87
2021/08/22 06:47:11;;;;;;;19.65;13.05;;;18.40;99.90;;;20.23;96.52;100441.09;6222096;23;20062;-88
2021/08/22 06:49:39;;;;;;;15.68;13.20;;;18.40;99.90;;;20.27;96.48;100444.72;6223717;23;20008;-87
2021/08/22 06:52:07;;;;;;;19.15;15.10;;;18.50;99.90;;;20.17;96.97;100448.47;6224675;23;20238;-86
2021/08/22 06:54:33;;;;;;;19.52;14.60;;;18.50;99.90;;;20.21;96.80;100447.22;6198784;23;20477;-88
2021/08/22 06:56:59;;;;;;;18.05;14.65;;;18.60;99.90;;;20.19;96.04;100446.03;6223243;23;20085;-90
2021/08/22 06:59:25;;;;;;;20.10;15.30;;;18.50;99.90;;;20.22;95.89;100450.84;6224118;23;20054;-89
2021/08/22 07:01:51;;;;;;;19.05;12.80;;;18.50;99.90;;;20.24;95.26;100452.03;6225011;23;20009;-88
2021/08/22 07:04:18;;;;;;;17.75;12.95;;;18.50;99.90;;;20.18;94.64;100448.06;6224705;23;20009;-84
2021/08/22 07:06:43;;;;;;;17.45;12.43;;;18.50;99.90;;;20.27;94.77;100451.19;6223706;23;20012;-88
2021/08/22 07:09:09;;;;;;;15.65;12.27;;;18.60;99.90;;;20.24;94.38;100454.06;6224712;23;20075;-87
2021/08/22 07:11:36;;;;;;;16.17;11.48;;;18.60;99.90;;;20.39;93.93;100453.44;6201236;23;20009;-85
2021/08/22 07:14:01;;;;;;;14.80;11.05;;;18.80;99.90;;;20.57;93.59;100460.84;6225114;23;20012;-87
2021/08/22 07:16:28;;;;;;;18.92;14.60;;;18.90;99.90;;;20.34;92.80;100467.31;6225232;23;20008;-86
2021/08/22 07:18:55;;;;;;;17.48;13.68;;;18.90;99.90;;;20.31;92.55;100463.28;6225395;23;20027;-88
2021/08/22 07:21:21;;;;;;;19.45;14.23;;;18.90;99.90;;;20.22;91.88;100463.00;6224363;23;20035;-89
2021/08/22 07:23:47;;;;;;;20.05;15.50;;;18.90;99.90;;;20.50;89.82;100459.75;6225292;23;20005;-85
2021/08/22 07:26:13;;;;;;;23.60;17.08;;;19.00;99.90;;;20.42;89.45;100463.13;6221941;23;20080;-91
2021/08/22 07:28:40;;;;;;;24.35;16.38;;;19.00;99.90;;;20.42;89.18;100460.31;6222592;23;20013;-87
2021/08/22 07:31:06;;;;;;;20.50;16.55;;;19.10;99.90;;;20.77;87.30;100458.91;6226006;23;20000;-87
2021/08/22 07:33:34;;;;;;;22.10;17.42;;;19.20;99.90;;;20.67;87.16;100465.56;6223859;23;20000;-87
2021/08/22 07:36:04;;;;;;;24.90;17.42;;;19.40;99.90;;;20.68;86.63;100464.34;6224323;23;20000;-86
2021/08/22 07:38:32;;;;;;;22.67;18.63;;;19.30;99.90;;;20.45;87.41;100460.22;6224055;23;20154;-89
2021/08/22 07:40:57;;;;;;;27.63;18.88;;;19.20;99.90;;;20.54;87.22;100464.56;6197292;23;20009;-87
2021/08/22 07:43:25;;;;;;;22.13;17.98;;;19.10;99.90;;;20.71;86.80;100469.91;6221082;23;20509;-88
2021/08/22 07:45:54;;;;;;;24.13;19.08;;;19.00;99.90;;;20.70;87.01;100471.16;6224765;23;20100;-87
2021/08/22 07:48:20;;;;;;;29.25;19.60;;;19.10;99.90;;;20.99;86.25;100474.31;6222878;23;20008;-89
2021/08/22 07:50:49;;;;;;;24.58;18.40;;;19.20;99.90;;;21.43;83.92;100465.38;6222332;23;20012;-88
2021/08/22 07:53:17;;;;;;;23.75;18.10;;;19.60;99.90;;;22.13;81.30;100475.66;6222238;23;20092;-83
2021/08/22 07:55:46;;;;;;;22.90;18.02;;;20.20;99.90;;;22.30;78.75;100488.69;6221478;23;20013;-83
2021/08/22 07:58:13;;;;;;;23.92;19.48;;;20.40;99.90;;;22.18;78.68;100489.38;6219806;23;20015;-85
2021/08/22 08:00:39;;;;;;;26.15;19.20;;;20.50;99.90;;;22.31;78.40;100484.59;6220224;23;20354;-84
2021/08/22 08:03:05;;;;;;;24.77;17.75;;;20.70;99.90;;;22.20;78.61;100489.72;6221443;23;20119;-88
2021/08/22 08:05:31;;;;;;;21.17;15.75;;;20.60;99.90;;;22.33;77.36;100485.75;6223498;23;20016;-86
2021/08/22 08:07:57;;;;;;;21.15;15.13;;;20.60;99.90;;;22.29;78.50;100482.19;6195555;23;20013;-84
2021/08/22 08:10:24;;;;;;;18.52;13.80;;;20.60;99.90;;;22.53;78.20;100494.25;6223445;23;20035;-85
2021/08/22 08:12:50;;;;;;;22.52;17.30;;;20.60;99.90;;;22.33;75.76;100491.44;6195258;23;20013;-87
2021/08/22 08:15:16;;;;;;;20.88;16.40;;;20.60;99.90;;;22.00;76.18;100486.91;6223103;23;20087;-88
2021/08/22 08:17:42;;;;;;;20.83;14.30;;;20.60;99.90;;;22.04;74.47;100479.94;6222028;23;20005;-88
2021/08/22 08:20:09;;;;;;;16.40;13.80;;;20.60;99.90;;;22.88;72.05;100487.69;6222515;23;20008;-89
2021/08/22 08:22:35;;;;;;;16.52;13.57;;;21.10;99.90;;;23.20;69.19;100494.56;6220153;23;20005;-84
2021/08/22 08:25:01;;;;;;;14.70;12.63;;;21.40;99.90;;;23.21;70.21;100497.00;6223994;23;20031;-85
2021/08/22 08:27:27;;;;;;;15.27;12.85;;;21.40;99.90;;;23.37;69.90;100499.81;6222758;23;20005;-87
2021/08/22 08:29:53;;;;;;;13.20;11.13;;;21.40;99.90;;;23.43;70.25;100502.94;6228291;23;20015;-80
2021/08/22 08:32:19;;;;;;;13.90;11.13;;;21.40;99.90;;;22.94;70.94;100510.72;6214575;23;20016;-87
2021/08/22 08:34:45;;;;;;;11.05;8.98;;;21.30;99.90;;;23.43;69.66;100515.13;6219118;23;20004;-88
2021/08/22 08:37:11;;;;;;;14.15;10.43;;;21.70;99.90;;;22.92;70.44;100508.34;6218257;23;20438;-87
2021/08/22 08:39:37;;;;;;;13.00;9.43;;;21.50;99.90;;;22.76;70.54;100514.03;6193239;23;20011;-86
2021/08/22 08:42:19;;;;;;;11.50;9.10;;;21.30;99.90;;;22.63;72.28;100515.94;6194573;23;20074;-86
2021/08/22 08:44:45;;;;;;;9.57;8.18;;;21.10;99.90;;;22.63;71.52;100520.84;6194339;23;20074;-87
2021/08/22 08:47:16;;;;;;;9.85;7.55;;;21.00;99.90;;;22.41;71.22;100520.56;6218935;23;20012;-87
2021/08/22 08:50:02;;;;;;;8.75;6.45;;;20.90;99.90;;;22.42;70.61;100525.78;6218445;23;20066;-86
2021/08/22 08:52:51;;;;;;;11.15;6.70;;;20.80;99.90;;;22.30;72.63;100534.22;6218713;23;20047;-90
2021/08/22 08:55:48;;;;;;;11.93;6.97;;;20.60;99.90;;;21.93;73.15;100530.53;6193809;23;20012;-89
2021/08/22 08:58:14;;;;;;;7.93;6.00;;;20.40;99.90;;;22.17;74.21;100524.75;6217319;23;20051;-85
2021/08/22 09:00:43;;;;;;;9.02;6.50;;;20.30;99.90;;;22.26;74.02;100534.28;6218048;23;20063;-84
2021/08/22 09:03:14;;;;;;;7.85;6.53;;;20.40;99.90;;;22.21;74.47;100523.44;6217281;23;20008;-88
2021/08/22 09:06:04;;;;;;;8.30;5.88;;;20.50;99.90;;;22.42;74.23;100522.94;6191098;23;20023;-87
2021/08/22 09:09:34;;;;;;;9.35;6.78;;;20.60;99.90;;;22.66;72.79;100514.28;6191203;23;20023;-87
2021/08/22 09:12:37;;;;;;;7.43;6.20;;;20.80;99.90;;;22.91;72.55;100515.28;6218446;23;20028;-87
2021/08/22 09:16:23;;;;;;;6.50;5.28;;;21.00;99.90;;;23.20;71.97;100518.19;6192763;23;20035;-87
2021/08/22 09:19:30;;;;;;;4.95;4.45;;;21.40;99.90;;;23.87;68.06;100519.16;6217056;23;20331;-86
2021/08/22 09:23:21;;;;;;;7.25;4.38;;;22.00;99.90;;;23.59;69.19;100517.13;6191898;23;20008;-87
2021/08/22 09:26:33;;;;;;;6.20;4.30;;;21.90;99.90;;;23.65;70.80;100508.81;6054846;23;20111;-88
2021/08/22 09:30:13;;;;;;;6.18;3.92;;;21.90;99.90;;;24.63;67.65;100502.13;6046138;23;20376;-87
2021/08/22 09:33:43;;;;;;;5.75;3.92;;;22.40;99.90;;;23.36;68.64;100506.75;6216788;23;20009;-90
2021/08/22 09:36:24;;;;;;;4.75;3.40;;;22.10;99.90;;;22.98;70.65;100495.16;6191459;23;20012;-90
2021/08/22 09:40:05;;;;;;;5.13;4.10;;;21.70;99.90;;;23.22;70.48;100507.13;6192796;23;20019;-90
2021/08/22 09:43:15;;;;;;;5.90;4.13;;;21.60;99.90;;;23.10;70.27;100500.13;6192228;23;20012;-88
2021/08/22 09:45:59;;;;;;;4.80;3.88;;;21.60;99.90;;;22.82;71.72;100498.00;6221340;23;20423;-88
2021/08/22 09:49:26;;;;;;;5.45;3.90;;;21.50;99.90;;;23.25;70.38;100505.41;6194650;23;20095;-87
2021/08/22 09:52:57;;;;;;;5.33;4.17;;;21.50;99.90;;;22.57;71.93;100494.97;6193034;23;20383;-85
2021/08/22 09:56:34;;;;;;;7.95;4.30;;;21.30;99.90;;;22.59;73.36;100496.09;6220436;23;20232;-87
2021/08/22 09:59:15;;;;;;;6.32;4.25;;;21.20;99.90;;;22.46;72.53;100488.72;6193728;23;20394;-89
2021/08/22 10:02:05;;;;;;;5.82;3.75;;;21.10;99.90;;;22.45;73.56;100487.91;6195175;23;20066;-89
2021/08/22 10:04:58;;;;;;;6.65;4.30;;;20.90;99.90;;;22.67;74.08;100493.13;6194162;23;20062;-88
2021/08/22 10:08:18;;;;;;;5.78;4.13;;;21.00;99.90;;;22.34;75.24;100497.94;6220240;23;20076;-89
2021/08/22 10:10:57;;;;;;;9.13;4.60;;;20.90;99.90;;;22.12;76.82;100496.84;6218935;23;20099;-88
2021/08/22 10:13:24;;;;;;;7.70;4.63;;;20.80;99.90;;;22.30;75.49;100500.06;6221731;23;20399;-88
2021/08/22 10:15:51;;;;;;;6.70;5.13;;;21.00;99.90;;;22.14;75.43;100495.16;6221098;23;20005;-89
2021/08/22 10:18:26;;;;;;;7.57;4.78;;;20.90;99.90;;;22.45;74.98;100490.75;6195338;23;20013;-91
2021/08/22 10:21:07;;;;;;;8.63;5.35;;;21.00;99.90;;;22.89;73.27;100486.41;6221037;23;20087;-85
2021/08/22 10:23:43;;;;;;;6.53;4.90;;;21.10;99.90;;;22.91;72.79;100500.22;6220578;23;20034;-87